Time;durP1;ratioP1;P1;durP2;ratioP2;P2;SDS_P1;SDS_P2;PMS_P1;PMS_P2;Temp;Humidity;BMP_temperature;BMP_pressure;BME280_temperature;BME280_humidity;BME280_pressure;Samples;Min_cycle;Max_cycle;Signal;HPM_P1;HPM_P2
2021/06/10 00:00:02;;;;;;;7.03;6.32;;;16.90;99.90;;;;;;5094495;28;20101;-92
2021/06/10 00:02:56;;;;;;;6.47;5.90;;;16.90;99.90;;;;;;5095457;28;20347;-92
2021/06/10 00:05:22;;;;;;;8.00;5.88;;;16.90;99.90;;;;;;5094439;28;20024;-91
2021/06/10 00:07:54;;;;;;;7.22;6.20;;;16.90;99.90;;;;;;5094216;28;20027;-91
2021/06/10 00:10:21;;;;;;;6.93;6.28;;;16.90;99.90;;;;;;5094004;28;20020;-91
2021/06/10 00:12:48;;;;;;;6.75;6.15;;;16.90;99.90;;;;;;5093993;28;20073;-91
2021/06/10 00:15:19;;;;;;;;;;;16.80;99.90;;;;;;5094935;28;20115;-91
2021/06/10 00:17:45;;;;;;;7.60;6.25;;;16.80;99.90;;;;;;5095165;28;19904;-91
2021/06/10 00:20:17;;;;;;;6.95;6.35;;;16.70;99.90;;;;;;5093984;28;20081;-91
2021/06/10 00:22:46;;;;;;;7.20;5.82;;;16.80;99.90;;;;;;5093354;28;20114;-88
2021/06/10 00:25:14;;;;;;;8.05;7.30;;;16.70;99.90;;;;;;5076933;28;20028;-91
2021/06/10 00:27:42;;;;;;;7.90;7.18;;;16.70;99.90;;;;;;5092936;28;20032;-92
2021/06/10 00:30:15;;;;;;;8.07;7.28;;;16.70;99.90;;;;;;5093742;28;20031;-91
2021/06/10 00:32:58;;;;;;;8.27;7.40;;;16.80;99.90;;;;;;5092062;28;20028;-91
2021/06/10 00:35:25;;;;;;;7.80;7.10;;;16.70;99.90;;;;;;5093641;28;20078;-91
2021/06/10 00:37:56;;;;;;;8.00;7.20;;;16.70;99.90;;;;;;5093628;28;20031;-91
2021/06/10 00:40:23;;;;;;;10.27;8.65;;;16.70;99.90;;;;;;5094732;28;20032;-91
2021/06/10 00:42:53;;;;;;;11.50;8.60;;;16.70;99.90;;;;;;5094641;28;20020;-91
2021/06/10 00:45:21;;;;;;;8.60;7.80;;;16.60;99.90;;;;;;5094772;28;20054;-91
2021/06/10 00:47:48;;;;;;;8.85;7.95;;;16.60;99.90;;;;;;5093608;28;20036;-91
2021/06/10 00:50:15;;;;;;;9.75;8.85;;;16.60;99.90;;;;;;5076554;28;20031;-91
2021/06/10 00:52:41;;;;;;;10.65;9.60;;;16.60;99.90;;;;;;5093539;28;20028;-90
2021/06/10 00:55:08;;;;;;;9.30;8.40;;;16.50;99.90;;;;;;5094485;28;20027;-90
2021/06/10 00:57:34;;;;;;;10.00;9.07;;;16.60;99.90;;;;;;5093109;28;20039;-90
2021/06/10 01:00:00;;;;;;;9.73;8.73;;;16.50;99.90;;;;;;5093523;28;20054;-90
2021/06/10 01:02:26;;;;;;;9.75;8.85;;;16.60;99.90;;;;;;5093941;28;20029;-90
2021/06/10 01:04:52;;;;;;;14.05;9.65;;;16.50;99.90;;;;;;5093360;28;20039;-91
2021/06/10 01:07:54;;;;;;;10.93;9.93;;;16.50;99.90;;;;;;5094739;28;20027;-92
2021/06/10 01:10:26;;;;;;;10.90;9.73;;;16.50;99.90;;;;;;5092854;28;20513;-90
2021/06/10 01:13:17;;;;;;;11.50;10.30;;;16.50;99.90;;;;;;5094543;28;20032;-92
2021/06/10 01:15:50;;;;;;;14.88;10.85;;;16.50;99.90;;;;;;5097240;28;20028;-89
2021/06/10 01:18:18;;;;;;;12.52;10.80;;;16.50;99.90;;;;;;5097665;28;20056;-91
2021/06/10 01:20:47;;;;;;;10.50;9.40;;;16.40;99.90;;;;;;5097381;28;20016;-92
2021/06/10 01:24:00;;;;;;;11.32;10.23;;;16.50;99.90;;;;;;5098481;28;20424;-90
2021/06/10 01:26:44;;;;;;;12.60;10.88;;;16.60;99.90;;;;;;5092250;28;20389;-91
2021/06/10 01:29:17;;;;;;;12.52;11.40;;;16.50;99.90;;;;;;5097068;28;20028;-89
2021/06/10 01:31:46;;;;;;;12.10;10.90;;;16.50;99.90;;;;;;5097830;28;20036;-92
2021/06/10 01:34:19;;;;;;;12.43;11.18;;;16.60;99.90;;;;;;5098444;28;20052;-91
2021/06/10 01:36:55;;;;;;;11.80;10.60;;;16.60;99.90;;;;;;5096865;28;20505;-92
2021/06/10 01:39:25;;;;;;;13.25;11.25;;;16.60;99.90;;;;;;5097093;28;20035;-91
2021/06/10 01:42:05;;;;;;;15.75;12.52;;;16.70;99.90;;;;;;5097249;28;20062;-91
2021/06/10 01:44:36;;;;;;;12.00;10.77;;;16.70;99.90;;;;;;5098204;28;20046;-91
2021/06/10 01:47:12;;;;;;;13.05;11.75;;;16.70;99.90;;;;;;5097051;28;20402;-91
2021/06/10 01:49:46;;;;;;;14.82;11.88;;;16.70;99.90;;;;;;5098218;28;20074;-91
2021/06/10 01:52:21;;;;;;;12.15;10.90;;;16.70;99.90;;;;;;5080026;28;20036;-90
2021/06/10 01:54:53;;;;;;;15.77;12.43;;;16.80;99.90;;;;;;5098150;28;20027;-90
2021/06/10 01:57:25;;;;;;;12.75;11.50;;;16.70;99.90;;;;;;5096958;28;20482;-92
2021/06/10 02:00:02;;;;;;;13.30;12.02;;;16.80;99.90;;;;;;5097948;28;20024;-92
2021/06/10 02:02:31;;;;;;;11.85;10.75;;;16.70;99.90;;;;;;5096579;28;20107;-92
2021/06/10 02:04:59;;;;;;;12.48;11.18;;;16.80;99.90;;;;;;5096795;28;20070;-92
2021/06/10 02:07:42;;;;;;;12.90;11.60;;;16.80;99.90;;;;;;5096597;28;20020;-92
2021/06/10 02:10:32;;;;;;;13.32;12.02;;;16.80;99.90;;;;;;5096278;28;20462;-91
2021/06/10 02:12:59;;;;;;;13.60;12.10;;;16.80;99.90;;;;;;5097078;28;20118;-92
2021/06/10 02:15:28;;;;;;;11.88;10.70;;;16.80;99.90;;;;;;5096153;28;20469;-91
2021/06/10 02:17:56;;;;;;;12.63;11.32;;;16.80;99.90;;;;;;5079873;28;20028;-92
2021/06/10 02:20:34;;;;;;;13.85;12.40;;;16.90;99.90;;;;;;5096196;28;20069;-91
2021/06/10 02:23:10;;;;;;;13.88;12.57;;;16.80;99.90;;;;;;5093958;28;20024;-91
2021/06/10 02:25:49;;;;;;;11.70;10.50;;;16.90;99.90;;;;;;5097327;28;20017;-91
2021/06/10 02:28:32;;;;;;;14.68;13.18;;;16.90;99.90;;;;;;5097386;28;20036;-92
2021/06/10 02:31:01;;;;;;;14.48;12.98;;;16.90;99.90;;;;;;5080499;28;20035;-90
2021/06/10 02:33:29;;;;;;;15.98;13.32;;;16.90;99.90;;;;;;5096088;28;20032;-93
2021/06/10 02:36:00;;;;;;;14.35;12.95;;;16.90;99.90;;;;;;5095949;28;20507;-91
2021/06/10 02:38:38;;;;;;;15.20;12.38;;;16.90;99.90;;;;;;5096141;28;20386;-91
2021/06/10 02:41:05;;;;;;;15.27;13.68;;;16.90;99.90;;;;;;5097061;28;20024;-91
2021/06/10 02:43:35;;;;;;;14.75;13.10;;;16.90;99.90;;;;;;5096033;28;20082;-91
2021/06/10 02:46:05;;;;;;;14.02;12.65;;;17.00;99.90;;;;;;5096939;28;20462;-91
2021/06/10 02:48:37;;;;;;;16.80;13.68;;;17.00;99.90;;;;;;5096900;28;20538;-91
2021/06/10 02:51:15;;;;;;;15.32;13.35;;;17.00;99.90;;;;;;5096547;28;20477;-92
2021/06/10 02:53:44;;;;;;;14.73;13.23;;;17.00;99.90;;;;;;5095686;28;20062;-92
2021/06/10 02:56:17;;;;;;;14.90;13.43;;;17.10;99.90;;;;;;5095641;28;20462;-91
2021/06/10 02:58:45;;;;;;;14.88;13.38;;;17.00;99.90;;;;;;5095504;28;20032;-87
2021/06/10 03:01:14;;;;;;;15.60;13.43;;;17.10;99.90;;;;;;5095272;28;20016;-92
2021/06/10 03:03:44;;;;;;;15.38;12.57;;;17.10;99.90;;;;;;5078912;28;20039;-91
2021/06/10 03:06:23;;;;;;;14.38;12.73;;;17.10;99.90;;;;;;5078764;28;20035;-92
2021/06/10 03:09:05;;;;;;;14.55;13.15;;;17.20;99.90;;;;;;5095534;28;20024;-91
2021/06/10 03:11:39;;;;;;;14.23;12.93;;;17.20;99.90;;;;;;5095500;28;20062;-92
2021/06/10 03:14:17;;;;;;;14.63;13.23;;;17.20;99.90;;;;;;5095329;28;20024;-92
2021/06/10 03:16:49;;;;;;;15.07;13.50;;;17.30;99.90;;;;;;5095509;28;20020;-92
2021/06/10 03:19:19;;;;;;;16.70;14.20;;;17.30;99.90;;;;;;5096573;28;20047;-92
2021/06/10 03:21:48;;;;;;;13.88;12.50;;;17.30;99.90;;;;;;5095287;28;20028;-92
2021/06/10 03:24:17;;;;;;;14.20;12.70;;;17.30;99.90;;;;;;5095163;28;20119;-92
2021/06/10 03:26:44;;;;;;;14.25;12.75;;;17.40;99.90;;;;;;5095189;28;20062;-93
2021/06/10 03:29:14;;;;;;;14.45;12.95;;;17.50;99.90;;;;;;5096029;28;20087;-93
2021/06/10 03:31:52;;;;;;;19.08;14.02;;;17.50;99.90;;;;;;5095044;28;20065;-92
2021/06/10 03:34:28;;;;;;;14.52;12.93;;;17.50;99.90;;;;;;5095090;28;20028;-92
2021/06/10 03:36:54;;;;;;;13.13;11.88;;;17.50;99.90;;;;;;5093997;28;20501;-93
2021/06/10 03:39:23;;;;;;;22.65;19.77;;;17.50;99.90;;;;;;5074798;28;20123;-89
2021/06/10 03:41:51;;;;;;;16.20;13.35;;;17.60;99.90;;;;;;5075969;28;20017;-92
2021/06/10 03:44:19;;;;;;;16.90;15.10;;;17.60;99.90;;;;;;5074507;28;20017;-93
2021/06/10 03:46:45;;;;;;;19.42;16.45;;;17.60;99.90;;;;;;5058234;28;20116;-92
2021/06/10 03:49:12;;;;;;;15.30;13.63;;;17.70;99.90;;;;;;5075630;28;20027;-92
2021/06/10 03:51:39;;;;;;;15.30;13.65;;;17.70;99.90;;;;;;5075848;28;20024;-93
2021/06/10 03:54:07;;;;;;;15.02;13.43;;;17.70;99.90;;;;;;5075388;28;20047;-91
2021/06/10 03:59:54;;;;;;;16.13;14.43;;;17.70;99.90;;;;;;5075532;28;20071;-90
2021/06/10 04:02:26;;;;;;;15.68;13.85;;;17.70;99.90;;;;;;5074133;28;20025;-91
2021/06/10 04:04:57;;;;;;;15.57;13.98;;;17.70;99.90;;;;;;5074203;28;20056;-91
2021/06/10 04:07:24;;;;;;;16.58;14.23;;;17.70;99.90;;;;;;5073974;28;20025;-89
2021/06/10 04:09:49;;;;;;;17.95;13.98;;;17.70;99.90;;;;;;5057205;28;20028;-90
2021/06/10 04:12:15;;;;;;;14.43;13.02;;;17.80;99.90;;;;;;5074067;28;20035;-90
2021/06/10 04:14:41;;;;;;;15.88;14.27;;;17.80;99.90;;;;;;5073969;28;20029;-90
2021/06/10 04:17:06;;;;;;;15.25;13.75;;;17.80;99.90;;;;;;5074939;28;20035;-90
2021/06/10 04:19:35;;;;;;;16.13;14.63;;;17.90;99.90;;;;;;5073887;28;20117;-90
2021/06/10 04:22:23;;;;;;;16.85;14.25;;;17.90;99.90;;;;;;5074653;28;20023;-90
2021/06/10 04:24:49;;;;;;;14.73;13.02;;;17.90;99.90;;;;;;5074018;28;20033;-89
2021/06/10 04:27:15;;;;;;;17.60;14.40;;;18.00;99.90;;;;;;5056983;28;20458;-91
2021/06/10 04:29:43;;;;;;;18.30;14.55;;;18.00;99.90;;;;;;5073772;28;20028;-89
2021/06/10 04:32:09;;;;;;;17.23;14.35;;;17.90;99.90;;;;;;5090223;28;20036;-90
2021/06/10 04:34:35;;;;;;;15.70;14.13;;;18.00;99.90;;;;;;5056485;28;20032;-91
2021/06/10 04:37:12;;;;;;;16.00;14.30;;;18.00;99.90;;;;;;5056877;28;20120;-90
2021/06/10 04:39:47;;;;;;;15.52;14.05;;;18.00;99.90;;;;;;5073646;28;20060;-90
2021/06/10 04:42:12;;;;;;;16.17;14.63;;;18.00;99.90;;;;;;5073486;28;20052;-90
2021/06/10 04:44:39;;;;;;;15.88;13.60;;;18.00;99.90;;;;;;5073701;28;20028;-89
2021/06/10 04:47:10;;;;;;;15.45;13.98;;;18.20;99.90;;;;;;5073130;28;20020;-88
2021/06/10 04:49:44;;;;;;;15.43;13.95;;;18.20;99.90;;;;;;5073328;28;20104;-90
2021/06/10 04:52:20;;;;;;;15.38;13.57;;;18.20;99.90;;;;;;5073587;28;20040;-90
2021/06/10 04:54:46;;;;;;;27.40;24.30;;;18.20;99.90;;;;;;5073750;28;20046;-89
2021/06/10 04:57:17;;;;;;;15.85;14.18;;;18.30;99.90;;;;;;5056290;28;20028;-88
2021/06/10 04:59:48;;;;;;;15.20;13.57;;;18.40;99.90;;;;;;5056625;28;20086;-91
2021/06/10 05:02:20;;;;;;;15.82;14.15;;;18.40;99.90;;;;;;5087093;28;20016;-91
2021/06/10 05:04:46;;;;;;;18.60;14.63;;;18.60;99.90;;;;;;5093444;28;20032;-88
2021/06/10 05:07:12;;;;;;;15.45;13.90;;;18.70;99.90;;;;;;5093533;28;20399;-90
2021/06/10 05:09:40;;;;;;;15.07;13.55;;;18.80;99.90;;;;;;5093340;28;20035;-89
2021/06/10 05:12:09;;;;;;;15.55;14.00;;;18.90;99.90;;;;;;5093216;28;20028;-91
2021/06/10 05:14:44;;;;;;;15.10;13.50;;;19.00;99.90;;;;;;5093437;28;20028;-88
2021/06/10 05:17:20;;;;;;;14.18;12.70;;;18.90;99.90;;;;;;5093265;28;20023;-89
2021/06/10 05:19:46;;;;;;;14.68;13.18;;;19.00;99.90;;;;;;5077249;28;20025;-89
2021/06/10 05:22:13;;;;;;;16.00;14.35;;;19.00;99.90;;;;;;5092600;28;20066;-89
2021/06/10 05:24:40;;;;;;;14.32;12.93;;;19.00;99.90;;;;;;5072920;28;20059;-89
2021/06/10 05:27:09;;;;;;;14.43;13.02;;;19.00;99.90;;;;;;5073073;28;20029;-88
2021/06/10 05:29:42;;;;;;;16.55;14.07;;;19.10;99.90;;;;;;5092135;28;20027;-88
2021/06/10 05:32:15;;;;;;;17.15;14.60;;;19.10;99.90;;;;;;5109993;28;20036;-87
2021/06/10 05:34:48;;;;;;;15.55;13.27;;;19.20;99.90;;;;;;5093759;28;20102;-88
2021/06/10 05:37:22;;;;;;;16.48;14.77;;;19.20;99.90;;;;;;5093082;28;20065;-89
2021/06/10 05:39:55;;;;;;;16.75;14.50;;;19.30;99.90;;;;;;5092871;28;20375;-89
2021/06/10 05:42:21;;;;;;;15.65;14.00;;;19.30;99.90;;;;;;5094019;28;20073;-89
2021/06/10 05:44:53;;;;;;;18.17;14.35;;;19.50;99.90;;;;;;5094059;28;20469;-89
2021/06/10 05:47:19;;;;;;;16.13;14.30;;;19.60;99.80;;;;;;5094050;28;20024;-88
2021/06/10 05:49:51;;;;;;;14.95;13.55;;;19.60;99.40;;;;;;5092929;28;20118;-89
2021/06/10 05:52:39;;;;;;;15.88;14.35;;;19.60;99.70;;;;;;5093487;28;20030;-89
2021/06/10 05:55:14;;;;;;;18.90;14.18;;;19.70;99.60;;;;;;5091528;28;20807;-87
2021/06/10 05:57:46;;;;;;;15.82;14.20;;;19.60;99.50;;;;;;5095275;28;20028;-90
2021/06/10 06:00:19;;;;;;;15.90;14.25;;;19.60;99.30;;;;;;5072528;28;20031;-88
2021/06/10 06:02:46;;;;;;;15.07;13.48;;;19.60;99.50;;;;;;5076466;28;20074;-89
2021/06/10 06:05:11;;;;;;;15.32;13.82;;;19.70;99.60;;;;;;5093363;28;20024;-89
2021/06/10 06:07:37;;;;;;;16.10;14.43;;;19.80;99.60;;;;;;5077429;28;20054;-89
2021/06/10 06:10:05;;;;;;;14.98;13.48;;;19.80;99.40;;;;;;5077534;28;20024;-90
2021/06/10 06:12:32;;;;;;;15.88;13.38;;;19.90;99.50;;;;;;5076710;28;20036;-89
2021/06/10 06:14:58;;;;;;;16.15;14.45;;;20.10;99.50;;;;;;5078285;28;20067;-90
2021/06/10 06:17:27;;;;;;;19.20;15.10;;;20.10;99.20;;;;;;5077330;28;20025;-90
2021/06/10 06:19:59;;;;;;;16.50;14.90;;;20.20;99.10;;;;;;5075980;28;20056;-91
2021/06/10 06:22:29;;;;;;;15.90;14.35;;;20.20;98.90;;;;;;5079115;28;20024;-89
2021/06/10 06:24:58;;;;;;;16.67;14.35;;;20.10;98.80;;;;;;5096229;28;20389;-90
2021/06/10 06:27:23;;;;;;;15.88;14.27;;;20.00;98.90;;;;;;5095944;28;20053;-91
2021/06/10 06:29:54;;;;;;;16.08;14.40;;;20.00;98.80;;;;;;5079505;28;20032;-90
2021/06/10 06:32:35;;;;;;;15.55;14.02;;;20.10;99.00;;;;;;5097214;28;20028;-89
2021/06/10 06:35:05;;;;;;;16.52;14.82;;;20.10;99.00;;;;;;5095740;28;20113;-90
2021/06/10 06:37:33;;;;;;;16.08;14.43;;;20.20;98.50;;;;;;5096411;28;20020;-89
2021/06/10 06:40:00;;;;;;;15.05;13.55;;;20.20;98.80;;;;;;5094973;28;20028;-89
2021/06/10 06:42:26;;;;;;;17.98;16.13;;;20.30;98.80;;;;;;5078573;28;20434;-88
2021/06/10 06:44:54;;;;;;;16.80;15.07;;;20.30;98.60;;;;;;5095337;28;20071;-87
2021/06/10 06:47:22;;;;;;;18.45;16.17;;;20.30;98.60;;;;;;5112656;28;20077;-89
2021/06/10 06:49:54;;;;;;;19.20;16.52;;;20.20;98.60;;;;;;5095472;28;20051;-88
2021/06/10 06:52:20;;;;;;;17.70;15.90;;;20.10;98.60;;;;;;5095290;28;20543;-89
2021/06/10 06:54:45;;;;;;;16.30;14.73;;;20.10;98.90;;;;;;5095354;28;20028;-88
2021/06/10 06:57:33;;;;;;;15.85;14.20;;;20.20;99.10;;;;;;5096574;28;20512;-88
2021/06/10 06:59:59;;;;;;;15.75;14.25;;;20.20;99.10;;;;;;5112344;28;20034;-89
2021/06/10 07:02:24;;;;;;;16.10;13.93;;;20.20;99.10;;;;;;5112450;28;20115;-88
2021/06/10 07:04:54;;;;;;;16.38;14.68;;;20.20;99.20;;;;;;5096208;28;20420;-89
2021/06/10 07:07:19;;;;;;;17.73;15.55;;;20.40;99.00;;;;;;5095275;28;20020;-88
2021/06/10 07:10:08;;;;;;;15.35;13.73;;;20.40;98.80;;;;;;5079332;28;20028;-90
2021/06/10 07:12:33;;;;;;;16.95;14.25;;;20.40;98.70;;;;;;5073462;28;20352;-89
2021/06/10 07:15:05;;;;;;;15.27;13.68;;;20.50;99.00;;;;;;5074337;28;20036;-87
2021/06/10 07:17:36;;;;;;;17.33;15.50;;;20.70;98.70;;;;;;5074345;28;20024;-89
2021/06/10 07:20:03;;;;;;;20.92;14.85;;;20.80;98.10;;;;;;5074687;28;20112;-88
2021/06/10 07:22:46;;;;;;;16.35;13.23;;;20.90;98.20;;;;;;5075448;28;20103;-88
2021/06/10 07:25:14;;;;;;;13.93;12.48;;;20.90;98.00;;;;;;5074201;28;20119;-88
2021/06/10 07:27:43;;;;;;;14.68;11.48;;;21.00;97.90;;;;;;5075485;28;20029;-87
2021/06/10 07:30:11;;;;;;;12.25;11.05;;;21.00;96.80;;;;;;5057708;28;20036;-89
2021/06/10 07:32:45;;;;;;;12.02;9.60;;;21.10;97.20;;;;;;5074524;28;20041;-91
2021/06/10 07:35:12;;;;;;;13.43;11.57;;;21.10;96.10;;;;;;5074910;28;20048;-86
2021/06/10 07:37:43;;;;;;;11.63;10.43;;;21.20;97.20;;;;;;5073725;28;20027;-90
2021/06/10 07:40:19;;;;;;;;;;;;;;;;;;;;;
2021/06/10 07:42:48;;;;;;;13.48;10.20;;;21.10;96.40;;;;;;5095454;28;20028;-86
2021/06/10 07:45:17;;;;;;;12.75;11.55;;;21.20;96.90;;;;;;5094415;28;20102;-89
2021/06/10 07:47:45;;;;;;;13.43;12.03;;;21.30;97.10;;;;;;5095286;28;20036;-90
2021/06/10 07:50:34;;;;;;;12.52;10.57;;;21.20;96.90;;;;;;5094069;28;20024;-89
2021/06/10 07:53:11;;;;;;;10.82;9.85;;;21.30;96.70;;;;;;5092418;28;20020;-90
2021/06/10 07:55:45;;;;;;;11.35;10.23;;;21.50;96.00;;;;;;5078755;28;20371;-90
2021/06/10 07:58:18;;;;;;;12.95;11.65;;;21.40;95.80;;;;;;5094177;28;20461;-91
2021/06/10 08:00:43;;;;;;;12.23;11.10;;;21.40;96.50;;;;;;5094575;28;20028;-91
2021/06/10 08:03:09;;;;;;;12.38;9.43;;;21.40;96.50;;;;;;5095383;28;20477;-90
2021/06/10 08:05:35;;;;;;;10.65;9.10;;;21.40;95.90;;;;;;5094400;28;20035;-90
2021/06/10 08:08:17;;;;;;;9.88;8.95;;;21.50;96.00;;;;;;5093962;28;20032;-91
2021/06/10 08:10:45;;;;;;;9.77;8.70;;;21.60;95.70;;;;;;5095085;28;20051;-90
2021/06/10 08:13:15;;;;;;;10.55;8.68;;;21.70;95.50;;;;;;5077571;28;20473;-94
2021/06/10 08:15:42;;;;;;;8.98;8.10;;;21.60;95.60;;;;;;5093728;28;20027;-89
2021/06/10 08:18:08;;;;;;;6.97;6.22;;;21.70;96.00;;;;;;5094363;28;20024;-92
2021/06/10 08:20:41;;;;;;;7.25;6.10;;;21.80;95.10;;;;;;5093997;28;20116;-92
2021/06/10 08:23:12;;;;;;;9.30;6.78;;;21.80;94.00;;;;;;5077988;28;20039;-92
2021/06/10 08:25:43;;;;;;;8.23;6.88;;;21.90;94.30;;;;;;5095168;28;20024;-93
2021/06/10 08:28:27;;;;;;;7.53;6.82;;;21.90;94.40;;;;;;5093821;28;20024;-91
2021/06/10 08:30:58;;;;;;;7.03;6.43;;;22.00;93.90;;;;;;5095085;28;20489;-92
2021/06/10 08:33:26;;;;;;;6.53;5.68;;;22.00;94.40;;;;;;5094001;28;20043;-92
2021/06/10 08:35:52;;;;;;;6.72;6.13;;;22.10;93.40;;;;;;5093611;28;20052;-91
2021/06/10 08:38:21;;;;;;;7.25;6.65;;;22.00;93.40;;;;;;5087275;28;20029;-92
2021/06/10 08:40:50;;;;;;;6.95;6.25;;;21.90;93.70;;;;;;5057282;28;20539;-92
2021/06/10 08:43:18;;;;;;;7.53;6.75;;;21.80;93.80;;;;;;5074607;28;20024;-89
2021/06/10 08:45:58;;;;;;;6.60;6.00;;;21.90;94.40;;;;;;5074453;28;20076;-93
2021/06/10 08:48:23;;;;;;;7.70;6.63;;;22.00;93.80;;;;;;5057575;28;20028;-92
2021/06/10 08:50:50;;;;;;;6.88;6.18;;;22.00;94.20;;;;;;5056807;28;20127;-93
2021/06/10 08:53:26;;;;;;;;;;;;;;;;;;;;;
2021/06/10 08:55:55;;;;;;;5.72;5.22;;;21.90;94.10;;;;;;5075188;28;20035;-91
2021/06/10 08:58:29;;;;;;;6.80;6.20;;;21.90;93.40;;;;;;5074524;28;20389;-91
2021/06/10 09:01:15;;;;;;;;;;;;;;;;;;;;;
2021/06/10 09:04:08;;;;;;;5.22;4.78;;;22.00;93.10;;;;;;5074428;28;20462;-86
2021/06/10 09:07:12;;;;;;;5.78;5.20;;;22.00;92.80;;;;;;5072708;28;20032;-89
2021/06/10 09:09:51;;;;;;;6.97;5.45;;;22.00;92.80;;;;;;5076689;28;20386;-89
2021/06/10 09:12:22;;;;;;;6.63;6.13;;;22.10;93.10;;;;;;5088626;28;20048;-90
2021/06/10 09:15:13;;;;;;;;;;;;;;;;;;;;;
2021/06/10 09:17:48;;;;;;;6.37;5.83;;;22.10;93.10;;;;;;5074012;28;20016;-88
2021/06/10 09:20:30;;;;;;;;;;;;;;;;;;;;;
2021/06/10 09:23:23;;;;;;;6.07;5.57;;;22.10;92.70;;;;;;5073434;28;20035;-89
2021/06/10 09:26:04;;;;;;;5.68;5.18;;;22.20;92.20;;;;;;5073509;28;20475;-85
2021/06/10 09:28:42;;;;;;;6.82;5.55;;;22.20;92.50;;;;;;5073234;28;20034;-90
2021/06/10 09:31:28;;;;;;;7.00;5.15;;;22.30;91.60;;;;;;5071761;28;20024;-86
2021/06/10 09:34:07;;;;;;;5.97;5.38;;;22.40;92.10;;;;;;5057943;28;20486;-87
2021/06/10 09:36:49;;;;;;;5.80;5.30;;;22.50;92.40;;;;;;5074441;28;20148;-93
2021/06/10 09:39:18;;;;;;;5.50;5.00;;;22.60;91.50;;;;;;5075852;28;20381;-84
2021/06/10 09:42:05;;;;;;;5.38;4.97;;;22.60;91.80;;;;;;5077080;28;20021;-89
2021/06/10 09:44:58;;;;;;;5.22;4.82;;;22.70;91.70;;;;;;5077505;28;20055;-91
2021/06/10 09:48:00;;;;;;;5.47;5.00;;;22.70;91.10;;;;;;5075433;28;20016;-85
2021/06/10 09:50:47;;;;;;;4.65;4.25;;;22.80;91.70;;;;;;5054827;28;20032;-90
2021/06/10 09:53:15;;;;;;;5.60;5.10;;;22.80;91.10;;;;;;5076187;28;20024;-87
2021/06/10 09:56:09;;;;;;;6.03;5.00;;;22.80;91.00;;;;;;5076860;28;20047;-86
2021/06/10 09:58:54;;;;;;;10.02;9.07;;;22.90;90.30;;;;;;5078259;28;20499;-91
2021/06/10 10:01:26;;;;;;;10.65;9.57;;;23.00;90.70;;;;;;5097575;28;20028;-93
2021/06/10 10:03:54;;;;;;;9.48;7.57;;;23.00;91.30;;;;;;5080715;28;20032;-93
2021/06/10 10:06:30;;;;;;;6.85;6.13;;;23.00;91.70;;;;;;5097021;28;20039;-93
2021/06/10 10:09:11;;;;;;;8.38;6.60;;;23.00;91.70;;;;;;5096724;28;20072;-92
2021/06/10 10:11:42;;;;;;;7.47;6.78;;;23.10;91.50;;;;;;5080344;28;20074;-94
2021/06/10 10:14:14;;;;;;;7.88;7.18;;;23.20;91.70;;;;;;5079297;28;20032;-89
2021/06/10 10:16:41;;;;;;;25.88;16.23;;;23.20;92.20;;;;;;5095940;28;20028;-89
2021/06/10 10:19:15;;;;;;;11.02;8.45;;;23.30;92.00;;;;;;5078582;28;20024;-89
2021/06/10 10:21:42;;;;;;;15.27;12.35;;;23.30;91.80;;;;;;5095563;28;20366;-90
2021/06/10 10:24:13;;;;;;;14.85;11.15;;;23.40;91.70;;;;;;5075833;28;20101;-90
2021/06/10 10:26:49;;;;;;;11.60;10.23;;;23.40;91.50;;;;;;5075456;28;20021;-89
2021/06/10 10:29:18;;;;;;;10.05;8.57;;;23.50;91.80;;;;;;5075923;28;20086;-89
2021/06/10 10:31:47;;;;;;;7.53;6.80;;;23.50;91.20;;;;;;5075003;28;20028;-87
2021/06/10 10:34:42;;;;;;;9.00;6.90;;;23.40;91.80;;;;;;5058031;28;20032;-87
2021/06/10 10:37:18;;;;;;;7.55;6.78;;;23.50;91.10;;;;;;5078624;28;20043;-84
2021/06/10 10:39:44;;;;;;;7.88;7.18;;;23.70;91.20;;;;;;5076691;28;20032;-85
2021/06/10 10:42:26;;;;;;;8.32;6.70;;;23.80;91.40;;;;;;5074228;28;20024;-85
2021/06/10 10:45:14;;;;;;;7.35;6.70;;;24.00;91.40;;;;;;5075922;28;20039;-84
2021/06/10 10:48:06;;;;;;;6.72;6.03;;;24.10;90.70;;;;;;5073231;28;20028;-86
2021/06/10 10:50:44;;;;;;;7.30;5.93;;;24.10;89.30;;;;;;5075436;28;20486;-86
2021/06/10 10:53:31;;;;;;;;;;;;;;;;;;;;;
2021/06/10 10:56:09;;;;;;;7.07;6.18;;;24.20;88.30;;;;;;5075306;28;20051;-85
2021/06/10 10:58:38;;;;;;;7.35;6.35;;;24.10;89.30;;;;;;5074109;28;20016;-85
2021/06/10 11:01:07;;;;;;;6.10;5.60;;;24.20;90.00;;;;;;5073487;28;20025;-85
2021/06/10 11:03:41;;;;;;;5.85;5.35;;;24.30;90.70;;;;;;5073948;28;20025;-84
2021/06/10 11:06:26;;;;;;;5.95;5.22;;;24.50;90.20;;;;;;5075226;28;20755;-84
2021/06/10 11:09:12;;;;;;;8.02;5.72;;;24.70;90.10;;;;;;5073682;28;20119;-84
2021/06/10 11:11:58;;;;;;;5.55;5.05;;;24.80;86.60;;;;;;5075054;28;20489;-84
2021/06/10 11:14:41;;;;;;;5.10;4.60;;;24.80;84.30;;;;;;5074361;28;20024;-84
2021/06/10 11:17:29;;;;;;;5.28;4.80;;;24.70;84.10;;;;;;5073529;28;20082;-85
2021/06/10 11:20:08;;;;;;;5.32;4.50;;;24.80;83.90;;;;;;5074958;28;20020;-86
2021/06/10 11:22:43;;;;;;;5.35;4.15;;;24.70;83.20;;;;;;5073851;28;20735;-86
2021/06/10 11:25:30;;;;;;;4.93;4.40;;;24.60;83.00;;;;;;5074801;28;20383;-86
2021/06/10 11:28:16;;;;;;;4.78;4.30;;;24.60;82.00;;;;;;5079835;28;20461;-84
2021/06/10 11:30:51;;;;;;;5.03;4.63;;;24.60;82.60;;;;;;5093639;28;20119;-85
2021/06/10 11:33:18;;;;;;;4.78;4.40;;;24.50;84.30;;;;;;5093737;28;20420;-84
2021/06/10 11:35:45;;;;;;;6.57;5.97;;;24.30;85.50;;;;;;5093463;28;20040;-85
2021/06/10 11:38:19;;;;;;;5.40;5.00;;;24.30;86.30;;;;;;5078093;28;20025;-85
2021/06/10 11:40:48;;;;;;;5.70;5.18;;;24.30;86.70;;;;;;5074562;28;20020;-85
2021/06/10 11:43:15;;;;;;;6.45;5.85;;;24.20;87.90;;;;;;5073555;28;20036;-85
2021/06/10 11:45:42;;;;;;;8.05;7.03;;;24.00;89.10;;;;;;5089700;28;20036;-85
2021/06/10 11:48:12;;;;;;;7.07;6.38;;;23.90;90.10;;;;;;5074573;28;20031;-86
2021/06/10 11:50:47;;;;;;;7.05;6.38;;;23.70;90.60;;;;;;5073314;28;20033;-83
2021/06/10 11:53:22;;;;;;;7.28;6.57;;;23.40;90.80;;;;;;5072900;28;20025;-84
2021/06/10 11:55:59;;;;;;;8.60;7.20;;;23.20;91.30;;;;;;5073157;28;20402;-86
2021/06/10 11:58:30;;;;;;;7.93;7.10;;;23.00;91.50;;;;;;5078973;28;20394;-84
2021/06/10 12:01:13;;;;;;;7.43;6.72;;;22.80;91.80;;;;;;5056135;28;20028;-86
2021/06/10 12:03:44;;;;;;;7.30;6.60;;;23.00;91.90;;;;;;5072922;28;20027;-87
2021/06/10 12:06:12;;;;;;;7.13;6.45;;;23.00;91.80;;;;;;5072841;28;20115;-86
2021/06/10 12:08:38;;;;;;;6.82;6.22;;;23.00;92.00;;;;;;5072868;28;20385;-86
2021/06/10 12:11:10;;;;;;;7.75;6.63;;;23.10;92.10;;;;;;5072651;28;20035;-88
2021/06/10 12:13:40;;;;;;;7.35;6.68;;;23.10;91.70;;;;;;5056800;28;20119;-87
2021/06/10 12:16:11;;;;;;;7.15;6.53;;;23.00;92.00;;;;;;5072471;28;20028;-86
2021/06/10 12:18:40;;;;;;;7.03;6.18;;;22.90;92.20;;;;;;5072470;28;20024;-87
2021/06/10 12:21:15;;;;;;;7.57;6.40;;;22.90;92.40;;;;;;5089467;28;20025;-86
2021/06/10 12:23:49;;;;;;;6.97;6.32;;;23.00;92.60;;;;;;5074799;28;20033;-86
2021/06/10 12:26:35;;;;;;;6.78;6.18;;;23.20;92.60;;;;;;5072586;28;20032;-86
2021/06/10 12:31:49;;;;;;;6.43;5.93;;;23.40;92.10;;;;;;5071328;28;20046;-86
2021/06/10 12:34:20;;;;;;;6.50;5.90;;;23.50;92.00;;;;;;5072440;28;20516;-86
2021/06/10 12:36:45;;;;;;;6.88;6.25;;;23.60;92.20;;;;;;5073509;28;20057;-86
2021/06/10 12:39:18;;;;;;;6.25;5.75;;;23.70;91.80;;;;;;5055993;28;20040;-84
2021/06/10 12:41:50;;;;;;;5.75;4.07;;;23.70;90.70;;;;;;5073434;28;20035;-86
2021/06/10 12:44:24;;;;;;;6.63;4.43;;;23.40;90.00;;;;;;5073094;28;20119;-88
2021/06/10 12:46:55;;;;;;;5.10;3.67;;;23.10;90.00;;;;;;5056919;28;20185;-93
2021/06/10 12:49:47;;;;;;;4.70;3.72;;;22.90;90.30;;;;;;5074592;28;20023;-90
2021/06/10 12:52:14;;;;;;;3.67;3.35;;;22.80;90.40;;;;;;5073374;28;20028;-87
2021/06/10 12:54:45;;;;;;;3.75;3.42;;;22.70;90.70;;;;;;5092689;28;20035;-84
2021/06/10 12:57:39;;;;;;;4.38;3.08;;;22.80;90.00;;;;;;5076806;28;20042;-86
2021/06/10 13:00:16;;;;;;;6.68;3.40;;;23.10;89.60;;;;;;5092480;28;20024;-87
2021/06/10 13:02:49;;;;;;;5.07;3.83;;;23.10;89.50;;;;;;5092799;28;20036;-89
2021/06/10 13:05:20;;;;;;;3.05;2.75;;;23.20;88.70;;;;;;5092870;28;20032;-92
2021/06/10 13:07:55;;;;;;;2.75;2.55;;;23.20;87.50;;;;;;5092433;28;20024;-93
2021/06/10 13:10:42;;;;;;;3.38;2.85;;;23.30;87.00;;;;;;5093026;28;20351;-96
2021/06/10 13:13:09;;;;;;;4.28;3.10;;;23.20;88.40;;;;;;5093691;28;20027;-88
2021/06/10 13:15:39;;;;;;;5.45;3.28;;;23.20;88.60;;;;;;5092373;28;20024;-86
2021/06/10 13:18:09;;;;;;;3.38;2.95;;;23.10;88.80;;;;;;5092442;28;20114;-89